sensor_id;sensor_type;location;lat;lon;timestamp;P1;durP1;ratioP1;P2;durP2;ratioP2
71496;SDS011;59317;53.218;5.730;2023-06-04T00:00:44;11.77;;;3.45;;
71496;SDS011;59317;53.218;5.730;2023-06-04T00:03:10;12.15;;;3.60;;
71496;SDS011;59317;53.218;5.730;2023-06-04T00:05:36;11.65;;;3.40;;
71496;SDS011;59317;53.218;5.730;2023-06-04T00:08:02;9.13;;;3.05;;
71496;SDS011;59317;53.218;5.730;2023-06-04T00:10:28;11.23;;;3.60;;
71496;SDS011;59317;53.218;5.730;2023-06-04T00:12:54;11.70;;;3.25;;
71496;SDS011;59317;53.218;5.730;2023-06-04T00:15:20;9.77;;;3.45;;
71496;SDS011;59317;53.218;5.730;2023-06-04T00:17:46;10.88;;;3.50;;
71496;SDS011;59317;53.218;5.730;2023-06-04T00:20:12;10.38;;;3.70;;
71496;SDS011;59317;53.218;5.730;2023-06-04T00:22:38;10.87;;;3.40;;
71496;SDS011;59317;53.218;5.730;2023-06-04T00:25:06;9.85;;;3.20;;
71496;SDS011;59317;53.218;5.730;2023-06-04T00:27:32;10.03;;;3.27;;
71496;SDS011;59317;53.218;5.730;2023-06-04T00:29:58;12.18;;;3.50;;
71496;SDS011;59317;53.218;5.730;2023-06-04T00:32:25;11.68;;;3.53;;
71496;SDS011;59317;53.218;5.730;2023-06-04T00:34:54;10.57;;;3.33;;
71496;SDS011;59317;53.218;5.730;2023-06-04T00:37:23;9.57;;;2.95;;
71496;SDS011;59317;53.218;5.730;2023-06-04T00:39:49;9.27;;;3.03;;
71496;SDS011;59317;53.218;5.730;2023-06-04T00:42:15;10.00;;;3.47;;
71496;SDS011;59317;53.218;5.730;2023-06-04T00:44:41;10.00;;;3.10;;
71496;SDS011;59317;53.218;5.730;2023-06-04T00:47:10;9.38;;;3.38;;
71496;SDS011;59317;53.218;5.730;2023-06-04T00:49:37;9.85;;;3.10;;
71496;SDS011;59317;53.218;5.730;2023-06-04T00:52:03;10.52;;;3.13;;
71496;SDS011;59317;53.218;5.730;2023-06-04T00:54:29;9.00;;;2.95;;
71496;SDS011;59317;53.218;5.730;2023-06-04T00:56:57;9.43;;;3.20;;
71496;SDS011;59317;53.218;5.730;2023-06-04T00:59:23;10.55;;;2.88;;
71496;SDS011;59317;53.218;5.730;2023-06-04T01:01:51;7.90;;;2.78;;
71496;SDS011;59317;53.218;5.730;2023-06-04T01:04:24;11.18;;;2.88;;
71496;SDS011;59317;53.218;5.730;2023-06-04T01:06:51;10.50;;;3.08;;
71496;SDS011;59317;53.218;5.730;2023-06-04T01:09:19;11.40;;;2.97;;
71496;SDS011;59317;53.218;5.730;2023-06-04T01:11:45;10.43;;;2.70;;
71496;SDS011;59317;53.218;5.730;2023-06-04T01:14:11;10.50;;;2.73;;
71496;SDS011;59317;53.218;5.730;2023-06-04T01:16:39;9.13;;;2.90;;
71496;SDS011;59317;53.218;5.730;2023-06-04T01:19:10;9.03;;;2.70;;
71496;SDS011;59317;53.218;5.730;2023-06-04T01:21:45;12.80;;;2.70;;
71496;SDS011;59317;53.218;5.730;2023-06-04T01:24:13;11.30;;;2.80;;
71496;SDS011;59317;53.218;5.730;2023-06-04T01:26:40;8.90;;;2.55;;
71496;SDS011;59317;53.218;5.730;2023-06-04T01:29:05;9.38;;;2.53;;
71496;SDS011;59317;53.218;5.730;2023-06-04T01:31:34;8.68;;;2.80;;
71496;SDS011;59317;53.218;5.730;2023-06-04T01:34:00;10.38;;;2.78;;
71496;SDS011;59317;53.218;5.730;2023-06-04T01:36:27;7.03;;;2.50;;
71496;SDS011;59317;53.218;5.730;2023-06-04T01:38:52;10.65;;;2.90;;
71496;SDS011;59317;53.218;5.730;2023-06-04T01:41:18;11.90;;;3.15;;
71496;SDS011;59317;53.218;5.730;2023-06-04T01:43:44;10.52;;;2.90;;
71496;SDS011;59317;53.218;5.730;2023-06-04T01:46:10;10.30;;;2.90;;
71496;SDS011;59317;53.218;5.730;2023-06-04T01:48:36;10.57;;;2.50;;
71496;SDS011;59317;53.218;5.730;2023-06-04T01:51:03;9.53;;;2.83;;
71496;SDS011;59317;53.218;5.730;2023-06-04T01:53:30;11.82;;;3.17;;
71496;SDS011;59317;53.218;5.730;2023-06-04T01:55:56;9.85;;;2.90;;
71496;SDS011;59317;53.218;5.730;2023-06-04T01:58:22;10.93;;;3.10;;
71496;SDS011;59317;53.218;5.730;2023-06-04T02:00:52;10.43;;;3.53;;
71496;SDS011;59317;53.218;5.730;2023-06-04T02:03:19;11.85;;;3.15;;
71496;SDS011;59317;53.218;5.730;2023-06-04T02:05:46;11.50;;;3.00;;
71496;SDS011;59317;53.218;5.730;2023-06-04T02:08:16;9.20;;;2.70;;
71496;SDS011;59317;53.218;5.730;2023-06-04T02:10:44;12.02;;;3.10;;
71496;SDS011;59317;53.218;5.730;2023-06-04T02:13:10;11.73;;;3.08;;
71496;SDS011;59317;53.218;5.730;2023-06-04T02:15:36;8.32;;;2.70;;
71496;SDS011;59317;53.218;5.730;2023-06-04T02:18:15;9.93;;;2.80;;
71496;SDS011;59317;53.218;5.730;2023-06-04T02:20:42;9.48;;;3.28;;
71496;SDS011;59317;53.218;5.730;2023-06-04T02:23:08;13.90;;;4.18;;
71496;SDS011;59317;53.218;5.730;2023-06-04T02:25:34;12.95;;;4.00;;
71496;SDS011;59317;53.218;5.730;2023-06-04T02:28:00;12.48;;;4.10;;
71496;SDS011;59317;53.218;5.730;2023-06-04T02:30:26;12.65;;;4.05;;
71496;SDS011;59317;53.218;5.730;2023-06-04T02:32:52;10.68;;;3.95;;
71496;SDS011;59317;53.218;5.730;2023-06-04T02:35:20;13.80;;;4.50;;
71496;SDS011;59317;53.218;5.730;2023-06-04T02:37:48;12.53;;;4.03;;
71496;SDS011;59317;53.218;5.730;2023-06-04T02:40:14;12.50;;;4.43;;
71496;SDS011;59317;53.218;5.730;2023-06-04T02:42:40;12.43;;;4.60;;
71496;SDS011;59317;53.218;5.730;2023-06-04T02:45:06;12.37;;;4.33;;
71496;SDS011;59317;53.218;5.730;2023-06-04T02:47:32;11.65;;;3.90;;
71496;SDS011;59317;53.218;5.730;2023-06-04T02:49:58;13.27;;;4.07;;
71496;SDS011;59317;53.218;5.730;2023-06-04T02:52:24;10.17;;;3.70;;
71496;SDS011;59317;53.218;5.730;2023-06-04T02:54:50;9.57;;;4.10;;
71496;SDS011;59317;53.218;5.730;2023-06-04T02:57:16;11.70;;;4.10;;
71496;SDS011;59317;53.218;5.730;2023-06-04T02:59:42;10.45;;;4.10;;
71496;SDS011;59317;53.218;5.730;2023-06-04T03:02:08;10.93;;;4.00;;
71496;SDS011;59317;53.218;5.730;2023-06-04T03:04:36;12.85;;;4.22;;
71496;SDS011;59317;53.218;5.730;2023-06-04T03:07:02;10.63;;;4.47;;
71496;SDS011;59317;53.218;5.730;2023-06-04T03:09:32;14.13;;;4.60;;
71496;SDS011;59317;53.218;5.730;2023-06-04T03:12:01;12.32;;;5.13;;
71496;SDS011;59317;53.218;5.730;2023-06-04T03:14:27;13.07;;;5.30;;
71496;SDS011;59317;53.218;5.730;2023-06-04T03:17:00;12.40;;;4.75;;
71496;SDS011;59317;53.218;5.730;2023-06-04T03:19:27;11.37;;;4.30;;
71496;SDS011;59317;53.218;5.730;2023-06-04T03:21:53;10.07;;;4.20;;
71496;SDS011;59317;53.218;5.730;2023-06-04T03:24:19;15.68;;;5.20;;
71496;SDS011;59317;53.218;5.730;2023-06-04T03:26:45;13.65;;;4.50;;
71496;SDS011;59317;53.218;5.730;2023-06-04T03:29:11;15.32;;;4.78;;
71496;SDS011;59317;53.218;5.730;2023-06-04T03:31:37;12.10;;;4.65;;
71496;SDS011;59317;53.218;5.730;2023-06-04T03:34:03;11.18;;;5.05;;
71496;SDS011;59317;53.218;5.730;2023-06-04T03:36:29;12.68;;;4.82;;
71496;SDS011;59317;53.218;5.730;2023-06-04T03:39:03;14.20;;;5.28;;
71496;SDS011;59317;53.218;5.730;2023-06-04T03:41:29;12.48;;;5.15;;
71496;SDS011;59317;53.218;5.730;2023-06-04T03:43:55;11.93;;;5.40;;
71496;SDS011;59317;53.218;5.730;2023-06-04T03:46:21;11.45;;;5.18;;
71496;SDS011;59317;53.218;5.730;2023-06-04T03:48:50;12.60;;;5.68;;
71496;SDS011;59317;53.218;5.730;2023-06-04T03:51:16;11.70;;;5.82;;
71496;SDS011;59317;53.218;5.730;2023-06-04T03:53:42;12.70;;;6.20;;
71496;SDS011;59317;53.218;5.730;2023-06-04T03:56:08;13.05;;;6.05;;
71496;SDS011;59317;53.218;5.730;2023-06-04T03:58:35;12.73;;;5.50;;
71496;SDS011;59317;53.218;5.730;2023-06-04T04:01:01;11.52;;;5.68;;
71496;SDS011;59317;53.218;5.730;2023-06-04T04:03:29;12.95;;;5.55;;
71496;SDS011;59317;53.218;5.730;2023-06-04T04:05:56;13.65;;;5.70;;
71496;SDS011;59317;53.218;5.730;2023-06-04T04:08:23;13.50;;;6.03;;
71496;SDS011;59317;53.218;5.730;2023-06-04T04:10:49;11.73;;;5.90;;
71496;SDS011;59317;53.218;5.730;2023-06-04T04:13:15;11.48;;;5.28;;
71496;SDS011;59317;53.218;5.730;2023-06-04T04:15:41;16.00;;;5.40;;
71496;SDS011;59317;53.218;5.730;2023-06-04T04:18:07;14.57;;;5.70;;
71496;SDS011;59317;53.218;5.730;2023-06-04T04:20:35;13.52;;;5.65;;
71496;SDS011;59317;53.218;5.730;2023-06-04T04:23:01;16.27;;;6.25;;
71496;SDS011;59317;53.218;5.730;2023-06-04T04:25:27;15.90;;;6.22;;
71496;SDS011;59317;53.218;5.730;2023-06-04T04:27:53;14.32;;;6.25;;
71496;SDS011;59317;53.218;5.730;2023-06-04T04:30:21;14.60;;;6.10;;
71496;SDS011;59317;53.218;5.730;2023-06-04T04:32:47;11.73;;;5.47;;
71496;SDS011;59317;53.218;5.730;2023-06-04T04:35:13;13.55;;;5.93;;
71496;SDS011;59317;53.218;5.730;2023-06-04T04:37:42;14.15;;;5.90;;
71496;SDS011;59317;53.218;5.730;2023-06-04T04:40:09;14.93;;;5.87;;
71496;SDS011;59317;53.218;5.730;2023-06-04T04:42:37;13.48;;;5.85;;
71496;SDS011;59317;53.218;5.730;2023-06-04T04:45:03;15.32;;;6.45;;
71496;SDS011;59317;53.218;5.730;2023-06-04T04:47:29;16.20;;;5.60;;
71496;SDS011;59317;53.218;5.730;2023-06-04T04:49:55;11.38;;;4.30;;
71496;SDS011;59317;53.218;5.730;2023-06-04T04:52:21;12.52;;;4.75;;
71496;SDS011;59317;53.218;5.730;2023-06-04T04:54:47;12.02;;;4.88;;
71496;SDS011;59317;53.218;5.730;2023-06-04T04:57:13;15.38;;;6.22;;
71496;SDS011;59317;53.218;5.730;2023-06-04T04:59:39;13.18;;;6.18;;
71496;SDS011;59317;53.218;5.730;2023-06-04T05:02:05;17.02;;;6.10;;
71496;SDS011;59317;53.218;5.730;2023-06-04T05:04:31;15.57;;;6.10;;
71496;SDS011;59317;53.218;5.730;2023-06-04T05:06:57;14.30;;;6.25;;
71496;SDS011;59317;53.218;5.730;2023-06-04T05:09:23;14.82;;;5.95;;
71496;SDS011;59317;53.218;5.730;2023-06-04T05:11:49;11.95;;;5.78;;
71496;SDS011;59317;53.218;5.730;2023-06-04T05:14:16;14.35;;;5.65;;
71496;SDS011;59317;53.218;5.730;2023-06-04T05:16:42;13.90;;;5.45;;
71496;SDS011;59317;53.218;5.730;2023-06-04T05:19:09;12.65;;;5.10;;
71496;SDS011;59317;53.218;5.730;2023-06-04T05:21:36;10.23;;;4.80;;
71496;SDS011;59317;53.218;5.730;2023-06-04T05:24:02;13.48;;;5.00;;
71496;SDS011;59317;53.218;5.730;2023-06-04T05:26:28;10.90;;;4.53;;
71496;SDS011;59317;53.218;5.730;2023-06-04T05:28:54;11.23;;;4.35;;
71496;SDS011;59317;53.218;5.730;2023-06-04T05:31:20;10.02;;;4.15;;
71496;SDS011;59317;53.218;5.730;2023-06-04T05:33:47;12.82;;;4.63;;
71496;SDS011;59317;53.218;5.730;2023-06-04T05:36:14;11.87;;;4.43;;
71496;SDS011;59317;53.218;5.730;2023-06-04T05:38:40;9.77;;;4.00;;
71496;SDS011;59317;53.218;5.730;2023-06-04T05:41:07;8.87;;;3.97;;
71496;SDS011;59317;53.218;5.730;2023-06-04T05:43:33;9.80;;;3.65;;
71496;SDS011;59317;53.218;5.730;2023-06-04T05:46:00;10.93;;;4.17;;
71496;SDS011;59317;53.218;5.730;2023-06-04T05:48:26;10.45;;;4.22;;
71496;SDS011;59317;53.218;5.730;2023-06-04T05:50:52;10.73;;;4.13;;
71496;SDS011;59317;53.218;5.730;2023-06-04T05:53:18;10.63;;;4.50;;
71496;SDS011;59317;53.218;5.730;2023-06-04T05:55:44;13.98;;;4.28;;
71496;SDS011;59317;53.218;5.730;2023-06-04T05:58:10;12.07;;;4.40;;
71496;SDS011;59317;53.218;5.730;2023-06-04T06:00:36;11.55;;;3.95;;
71496;SDS011;59317;53.218;5.730;2023-06-04T06:03:02;10.35;;;4.35;;
71496;SDS011;59317;53.218;5.730;2023-06-04T06:05:30;12.63;;;3.72;;
71496;SDS011;59317;53.218;5.730;2023-06-04T06:07:56;10.02;;;2.78;;
71496;SDS011;59317;53.218;5.730;2023-06-04T06:10:22;10.48;;;2.80;;
71496;SDS011;59317;53.218;5.730;2023-06-04T06:12:48;9.82;;;3.17;;
71496;SDS011;59317;53.218;5.730;2023-06-04T06:15:14;10.90;;;2.70;;
71496;SDS011;59317;53.218;5.730;2023-06-04T06:17:40;7.50;;;2.38;;
71496;SDS011;59317;53.218;5.730;2023-06-04T06:20:06;9.82;;;3.00;;
71496;SDS011;59317;53.218;5.730;2023-06-04T06:22:33;9.17;;;2.80;;
71496;SDS011;59317;53.218;5.730;2023-06-04T06:25:00;7.90;;;2.50;;
71496;SDS011;59317;53.218;5.730;2023-06-04T06:27:26;10.60;;;3.08;;
71496;SDS011;59317;53.218;5.730;2023-06-04T06:29:52;8.00;;;2.88;;
71496;SDS011;59317;53.218;5.730;2023-06-04T06:32:18;9.85;;;2.80;;
71496;SDS011;59317;53.218;5.730;2023-06-04T06:34:44;8.20;;;2.60;;
71496;SDS011;59317;53.218;5.730;2023-06-04T06:37:10;9.10;;;2.35;;
71496;SDS011;59317;53.218;5.730;2023-06-04T06:39:36;8.90;;;2.40;;
71496;SDS011;59317;53.218;5.730;2023-06-04T06:42:02;9.65;;;2.28;;
71496;SDS011;59317;53.218;5.730;2023-06-04T06:44:28;8.77;;;1.92;;
71496;SDS011;59317;53.218;5.730;2023-06-04T06:46:54;7.63;;;2.35;;
71496;SDS011;59317;53.218;5.730;2023-06-04T06:49:20;7.68;;;2.30;;
71496;SDS011;59317;53.218;5.730;2023-06-04T06:51:46;7.97;;;2.13;;
71496;SDS011;59317;53.218;5.730;2023-06-04T06:54:14;7.85;;;2.13;;
71496;SDS011;59317;53.218;5.730;2023-06-04T06:56:41;8.13;;;1.70;;
71496;SDS011;59317;53.218;5.730;2023-06-04T06:59:07;8.43;;;2.20;;
71496;SDS011;59317;53.218;5.730;2023-06-04T07:01:33;8.43;;;1.97;;
71496;SDS011;59317;53.218;5.730;2023-06-04T07:03:59;7.32;;;1.85;;
71496;SDS011;59317;53.218;5.730;2023-06-04T07:06:25;6.78;;;1.60;;
71496;SDS011;59317;53.218;5.730;2023-06-04T07:08:51;7.53;;;2.00;;
71496;SDS011;59317;53.218;5.730;2023-06-04T07:11:18;6.57;;;1.90;;
71496;SDS011;59317;53.218;5.730;2023-06-04T07:13:44;6.90;;;1.67;;
71496;SDS011;59317;53.218;5.730;2023-06-04T07:16:10;7.65;;;1.73;;
71496;SDS011;59317;53.218;5.730;2023-06-04T07:18:36;6.03;;;1.50;;
71496;SDS011;59317;53.218;5.730;2023-06-04T07:21:02;6.78;;;1.60;;
71496;SDS011;59317;53.218;5.730;2023-06-04T07:23:28;8.33;;;1.73;;
71496;SDS011;59317;53.218;5.730;2023-06-04T07:25:54;7.80;;;1.73;;
71496;SDS011;59317;53.218;5.730;2023-06-04T07:28:21;9.68;;;1.85;;
71496;SDS011;59317;53.218;5.730;2023-06-04T07:30:46;7.07;;;2.00;;
71496;SDS011;59317;53.218;5.730;2023-06-04T07:33:12;7.35;;;1.70;;
71496;SDS011;59317;53.218;5.730;2023-06-04T07:35:39;6.00;;;1.65;;
71496;SDS011;59317;53.218;5.730;2023-06-04T07:38:05;7.18;;;1.70;;
71496;SDS011;59317;53.218;5.730;2023-06-04T07:40:31;7.15;;;1.75;;
71496;SDS011;59317;53.218;5.730;2023-06-04T07:42:57;6.43;;;1.60;;
71496;SDS011;59317;53.218;5.730;2023-06-04T07:45:23;7.65;;;2.05;;
71496;SDS011;59317;53.218;5.730;2023-06-04T07:47:49;5.95;;;1.75;;
71496;SDS011;59317;53.218;5.730;2023-06-04T07:50:15;7.00;;;1.77;;
71496;SDS011;59317;53.218;5.730;2023-06-04T07:52:41;6.60;;;1.63;;
71496;SDS011;59317;53.218;5.730;2023-06-04T07:55:08;6.78;;;2.08;;
71496;SDS011;59317;53.218;5.730;2023-06-04T07:57:34;9.00;;;2.00;;
71496;SDS011;59317;53.218;5.730;2023-06-04T08:00:01;8.25;;;2.10;;
71496;SDS011;59317;53.218;5.730;2023-06-04T08:02:32;8.57;;;2.00;;
71496;SDS011;59317;53.218;5.730;2023-06-04T08:04:58;6.45;;;1.50;;
71496;SDS011;59317;53.218;5.730;2023-06-04T08:07:24;6.53;;;1.50;;
71496;SDS011;59317;53.218;5.730;2023-06-04T08:09:50;7.67;;;1.80;;
71496;SDS011;59317;53.218;5.730;2023-06-04T08:12:16;8.80;;;1.60;;
71496;SDS011;59317;53.218;5.730;2023-06-04T08:14:43;6.38;;;1.40;;
71496;SDS011;59317;53.218;5.730;2023-06-04T08:17:09;6.60;;;1.48;;
71496;SDS011;59317;53.218;5.730;2023-06-04T08:19:35;6.60;;;1.80;;
71496;SDS011;59317;53.218;5.730;2023-06-04T08:22:01;7.63;;;1.40;;
71496;SDS011;59317;53.218;5.730;2023-06-04T08:24:27;5.88;;;1.50;;
71496;SDS011;59317;53.218;5.730;2023-06-04T08:26:53;6.15;;;1.40;;
71496;SDS011;59317;53.218;5.730;2023-06-04T08:29:19;6.28;;;1.30;;
71496;SDS011;59317;53.218;5.730;2023-06-04T08:31:44;6.55;;;1.60;;
71496;SDS011;59317;53.218;5.730;2023-06-04T08:34:10;6.72;;;1.65;;
71496;SDS011;59317;53.218;5.730;2023-06-04T08:36:36;5.82;;;1.30;;
71496;SDS011;59317;53.218;5.730;2023-06-04T08:39:02;6.28;;;1.75;;
71496;SDS011;59317;53.218;5.730;2023-06-04T08:41:34;6.53;;;1.40;;
71496;SDS011;59317;53.218;5.730;2023-06-04T08:44:00;7.53;;;1.70;;
71496;SDS011;59317;53.218;5.730;2023-06-04T08:46:27;6.72;;;1.30;;
71496;SDS011;59317;53.218;5.730;2023-06-04T08:48:54;5.70;;;1.40;;
71496;SDS011;59317;53.218;5.730;2023-06-04T08:51:21;5.93;;;1.25;;
71496;SDS011;59317;53.218;5.730;2023-06-04T08:53:47;5.85;;;1.50;;
71496;SDS011;59317;53.218;5.730;2023-06-04T08:56:19;5.53;;;1.30;;
71496;SDS011;59317;53.218;5.730;2023-06-04T08:58:47;7.15;;;1.40;;
71496;SDS011;59317;53.218;5.730;2023-06-04T09:01:13;4.70;;;1.20;;
71496;SDS011;59317;53.218;5.730;2023-06-04T09:03:39;3.30;;;1.00;;
71496;SDS011;59317;53.218;5.730;2023-06-04T09:06:06;6.13;;;1.40;;
71496;SDS011;59317;53.218;5.730;2023-06-04T09:08:34;5.88;;;1.60;;
71496;SDS011;59317;53.218;5.730;2023-06-04T09:11:03;4.03;;;1.20;;
71496;SDS011;59317;53.218;5.730;2023-06-04T09:13:31;6.00;;;1.40;;
71496;SDS011;59317;53.218;5.730;2023-06-04T09:15:58;6.55;;;1.50;;
71496;SDS011;59317;53.218;5.730;2023-06-04T09:18:25;5.72;;;1.27;;
71496;SDS011;59317;53.218;5.730;2023-06-04T09:21:00;6.83;;;1.50;;
71496;SDS011;59317;53.218;5.730;2023-06-04T09:23:26;6.15;;;1.50;;
71496;SDS011;59317;53.218;5.730;2023-06-04T09:25:53;4.68;;;1.13;;
71496;SDS011;59317;53.218;5.730;2023-06-04T09:28:19;6.60;;;1.50;;
71496;SDS011;59317;53.218;5.730;2023-06-04T09:30:52;5.72;;;1.45;;
71496;SDS011;59317;53.218;5.730;2023-06-04T09:33:18;5.25;;;1.50;;
71496;SDS011;59317;53.218;5.730;2023-06-04T09:35:55;6.47;;;1.60;;
71496;SDS011;59317;53.218;5.730;2023-06-04T09:38:21;7.03;;;1.50;;
71496;SDS011;59317;53.218;5.730;2023-06-04T09:40:47;5.68;;;1.60;;
71496;SDS011;59317;53.218;5.730;2023-06-04T09:43:20;5.57;;;1.48;;
71496;SDS011;59317;53.218;5.730;2023-06-04T09:45:47;5.95;;;1.20;;
71496;SDS011;59317;53.218;5.730;2023-06-04T09:48:19;6.63;;;1.50;;
71496;SDS011;59317;53.218;5.730;2023-06-04T09:50:46;6.45;;;1.67;;
71496;SDS011;59317;53.218;5.730;2023-06-04T09:53:21;6.10;;;1.40;;
71496;SDS011;59317;53.218;5.730;2023-06-04T09:56:00;6.90;;;1.40;;
71496;SDS011;59317;53.218;5.730;2023-06-04T09:58:28;7.60;;;1.70;;
71496;SDS011;59317;53.218;5.730;2023-06-04T10:00:55;7.35;;;1.60;;
71496;SDS011;59317;53.218;5.730;2023-06-04T10:03:23;5.43;;;1.30;;
71496;SDS011;59317;53.218;5.730;2023-06-04T10:05:51;6.70;;;1.60;;
71496;SDS011;59317;53.218;5.730;2023-06-04T10:08:18;7.05;;;1.80;;
71496;SDS011;59317;53.218;5.730;2023-06-04T10:10:45;5.97;;;1.55;;
71496;SDS011;59317;53.218;5.730;2023-06-04T10:13:14;7.18;;;1.80;;
71496;SDS011;59317;53.218;5.730;2023-06-04T10:15:42;6.03;;;1.70;;
71496;SDS011;59317;53.218;5.730;2023-06-04T10:18:08;7.30;;;1.85;;
71496;SDS011;59317;53.218;5.730;2023-06-04T10:20:35;6.00;;;1.55;;
71496;SDS011;59317;53.218;5.730;2023-06-04T10:23:01;6.10;;;1.58;;
71496;SDS011;59317;53.218;5.730;2023-06-04T10:25:29;6.97;;;1.73;;
71496;SDS011;59317;53.218;5.730;2023-06-04T10:27:55;5.85;;;1.70;;
71496;SDS011;59317;53.218;5.730;2023-06-04T10:30:23;4.65;;;1.35;;
71496;SDS011;59317;53.218;5.730;2023-06-04T10:32:51;4.97;;;1.58;;
71496;SDS011;59317;53.218;5.730;2023-06-04T10:35:28;5.28;;;1.40;;
71496;SDS011;59317;53.218;5.730;2023-06-04T10:38:03;5.65;;;1.50;;
71496;SDS011;59317;53.218;5.730;2023-06-04T10:40:33;5.70;;;1.60;;
71496;SDS011;59317;53.218;5.730;2023-06-04T10:45:31;8.57;;;1.80;;
71496;SDS011;59317;53.218;5.730;2023-06-04T10:48:01;4.73;;;1.40;;
71496;SDS011;59317;53.218;5.730;2023-06-04T10:50:27;5.50;;;1.52;;
71496;SDS011;59317;53.218;5.730;2023-06-04T10:52:53;5.82;;;1.50;;
71496;SDS011;59317;53.218;5.730;2023-06-04T10:55:20;7.72;;;1.80;;
71496;SDS011;59317;53.218;5.730;2023-06-04T10:57:56;6.68;;;1.58;;
71496;SDS011;59317;53.218;5.730;2023-06-04T11:00:22;5.78;;;1.50;;
71496;SDS011;59317;53.218;5.730;2023-06-04T11:02:59;5.82;;;1.33;;
71496;SDS011;59317;53.218;5.730;2023-06-04T11:05:39;6.50;;;1.42;;
71496;SDS011;59317;53.218;5.730;2023-06-04T11:08:05;4.47;;;1.10;;
71496;SDS011;59317;53.218;5.730;2023-06-04T11:10:32;5.63;;;1.38;;
71496;SDS011;59317;53.218;5.730;2023-06-04T11:12:59;5.25;;;1.35;;
71496;SDS011;59317;53.218;5.730;2023-06-04T11:15:25;5.23;;;1.30;;
71496;SDS011;59317;53.218;5.730;2023-06-04T11:17:54;4.17;;;1.20;;
71496;SDS011;59317;53.218;5.730;2023-06-04T11:20:23;5.83;;;1.20;;
71496;SDS011;59317;53.218;5.730;2023-06-04T11:22:56;7.00;;;1.48;;
71496;SDS011;59317;53.218;5.730;2023-06-04T11:25:26;6.77;;;1.47;;
71496;SDS011;59317;53.218;5.730;2023-06-04T11:27:53;6.05;;;1.30;;
71496;SDS011;59317;53.218;5.730;2023-06-04T11:30:20;4.93;;;1.30;;
71496;SDS011;59317;53.218;5.730;2023-06-04T11:32:46;6.20;;;1.60;;
71496;SDS011;59317;53.218;5.730;2023-06-04T11:35:12;5.90;;;1.48;;
71496;SDS011;59317;53.218;5.730;2023-06-04T11:37:39;6.40;;;1.60;;
71496;SDS011;59317;53.218;5.730;2023-06-04T11:40:15;6.15;;;1.40;;
71496;SDS011;59317;53.218;5.730;2023-06-04T11:42:42;7.90;;;1.08;;
71496;SDS011;59317;53.218;5.730;2023-06-04T11:45:09;8.43;;;1.30;;
71496;SDS011;59317;53.218;5.730;2023-06-04T11:47:35;5.55;;;1.45;;
71496;SDS011;59317;53.218;5.730;2023-06-04T11:50:01;5.28;;;1.30;;
71496;SDS011;59317;53.218;5.730;2023-06-04T11:52:27;4.72;;;1.30;;
71496;SDS011;59317;53.218;5.730;2023-06-04T11:54:53;5.07;;;1.50;;
71496;SDS011;59317;53.218;5.730;2023-06-04T11:57:19;5.15;;;1.30;;
71496;SDS011;59317;53.218;5.730;2023-06-04T11:59:45;4.35;;;1.10;;
71496;SDS011;59317;53.218;5.730;2023-06-04T12:02:11;6.03;;;1.17;;
71496;SDS011;59317;53.218;5.730;2023-06-04T12:04:37;4.88;;;1.02;;
71496;SDS011;59317;53.218;5.730;2023-06-04T12:07:03;6.07;;;1.40;;
71496;SDS011;59317;53.218;5.730;2023-06-04T12:09:32;4.73;;;1.27;;
71496;SDS011;59317;53.218;5.730;2023-06-04T12:12:06;6.65;;;1.25;;
71496;SDS011;59317;53.218;5.730;2023-06-04T12:14:32;5.53;;;1.27;;
71496;SDS011;59317;53.218;5.730;2023-06-04T12:16:59;4.90;;;1.30;;
71496;SDS011;59317;53.218;5.730;2023-06-04T12:19:26;6.25;;;1.38;;
71496;SDS011;59317;53.218;5.730;2023-06-04T12:21:58;4.68;;;1.10;;
71496;SDS011;59317;53.218;5.730;2023-06-04T12:24:28;4.68;;;1.23;;
71496;SDS011;59317;53.218;5.730;2023-06-04T12:27:04;5.55;;;1.35;;
71496;SDS011;59317;53.218;5.730;2023-06-04T12:29:31;5.60;;;1.30;;
71496;SDS011;59317;53.218;5.730;2023-06-04T12:32:04;4.63;;;1.10;;
71496;SDS011;59317;53.218;5.730;2023-06-04T12:34:33;5.60;;;1.20;;
71496;SDS011;59317;53.218;5.730;2023-06-04T12:36:59;4.13;;;1.10;;
71496;SDS011;59317;53.218;5.730;2023-06-04T12:39:25;4.87;;;1.17;;
71496;SDS011;59317;53.218;5.730;2023-06-04T12:41:51;4.33;;;1.10;;
71496;SDS011;59317;53.218;5.730;2023-06-04T12:44:17;5.87;;;1.30;;
71496;SDS011;59317;53.218;5.730;2023-06-04T12:46:43;5.77;;;1.17;;
71496;SDS011;59317;53.218;5.730;2023-06-04T12:49:09;3.63;;;0.90;;
71496;SDS011;59317;53.218;5.730;2023-06-04T12:51:35;4.57;;;1.17;;
71496;SDS011;59317;53.218;5.730;2023-06-04T12:54:03;4.43;;;1.20;;
71496;SDS011;59317;53.218;5.730;2023-06-04T12:56:29;4.13;;;1.00;;
71496;SDS011;59317;53.218;5.730;2023-06-04T12:58:55;4.63;;;0.95;;
71496;SDS011;59317;53.218;5.730;2023-06-04T13:01:21;5.63;;;1.40;;
71496;SDS011;59317;53.218;5.730;2023-06-04T13:03:47;7.22;;;1.10;;
71496;SDS011;59317;53.218;5.730;2023-06-04T13:06:15;4.88;;;1.00;;
71496;SDS011;59317;53.218;5.730;2023-06-04T13:08:41;5.90;;;1.00;;
71496;SDS011;59317;53.218;5.730;2023-06-04T13:11:08;4.43;;;1.00;;
71496;SDS011;59317;53.218;5.730;2023-06-04T13:13:35;6.38;;;1.38;;
71496;SDS011;59317;53.218;5.730;2023-06-04T13:16:01;5.97;;;1.20;;
71496;SDS011;59317;53.218;5.730;2023-06-04T13:18:27;4.13;;;1.20;;
71496;SDS011;59317;53.218;5.730;2023-06-04T13:20:53;4.80;;;1.10;;
71496;SDS011;59317;53.218;5.730;2023-06-04T13:23:19;4.57;;;1.20;;
71496;SDS011;59317;53.218;5.730;2023-06-04T13:25:45;5.18;;;1.10;;
71496;SDS011;59317;53.218;5.730;2023-06-04T13:28:11;5.20;;;1.10;;
71496;SDS011;59317;53.218;5.730;2023-06-04T13:30:38;5.68;;;1.13;;
71496;SDS011;59317;53.218;5.730;2023-06-04T13:33:04;5.73;;;1.30;;
71496;SDS011;59317;53.218;5.730;2023-06-04T13:35:31;5.00;;;1.20;;
71496;SDS011;59317;53.218;5.730;2023-06-04T13:37:57;5.30;;;1.10;;
71496;SDS011;59317;53.218;5.730;2023-06-04T13:40:23;4.97;;;1.10;;
71496;SDS011;59317;53.218;5.730;2023-06-04T13:42:49;5.47;;;1.10;;
71496;SDS011;59317;53.218;5.730;2023-06-04T13:45:15;6.30;;;1.50;;
71496;SDS011;59317;53.218;5.730;2023-06-04T13:47:42;4.60;;;1.10;;
71496;SDS011;59317;53.218;5.730;2023-06-04T13:50:08;6.30;;;1.30;;
71496;SDS011;59317;53.218;5.730;2023-06-04T13:52:34;9.02;;;1.33;;
71496;SDS011;59317;53.218;5.730;2023-06-04T13:55:00;6.10;;;1.20;;
71496;SDS011;59317;53.218;5.730;2023-06-04T13:57:27;5.77;;;1.27;;
71496;SDS011;59317;53.218;5.730;2023-06-04T13:59:53;7.82;;;1.40;;
71496;SDS011;59317;53.218;5.730;2023-06-04T14:02:19;5.18;;;1.20;;
71496;SDS011;59317;53.218;5.730;2023-06-04T14:04:46;5.40;;;1.30;;
71496;SDS011;59317;53.218;5.730;2023-06-04T14:07:11;5.47;;;1.17;;
71496;SDS011;59317;53.218;5.730;2023-06-04T14:09:37;4.95;;;1.50;;
71496;SDS011;59317;53.218;5.730;2023-06-04T14:12:04;5.78;;;1.20;;
71496;SDS011;59317;53.218;5.730;2023-06-04T14:14:30;5.13;;;1.20;;
71496;SDS011;59317;53.218;5.730;2023-06-04T14:17:01;6.05;;;1.30;;
71496;SDS011;59317;53.218;5.730;2023-06-04T14:19:27;5.03;;;1.33;;
71496;SDS011;59317;53.218;5.730;2023-06-04T14:21:53;6.90;;;1.63;;
71496;SDS011;59317;53.218;5.730;2023-06-04T14:24:19;4.47;;;1.33;;
71496;SDS011;59317;53.218;5.730;2023-06-04T14:26:45;7.20;;;1.40;;
71496;SDS011;59317;53.218;5.730;2023-06-04T14:29:12;6.18;;;1.35;;
71496;SDS011;59317;53.218;5.730;2023-06-04T14:31:38;7.43;;;1.50;;
71496;SDS011;59317;53.218;5.730;2023-06-04T14:34:04;5.75;;;1.50;;
71496;SDS011;59317;53.218;5.730;2023-06-04T14:36:32;6.30;;;1.73;;
71496;SDS011;59317;53.218;5.730;2023-06-04T14:38:58;5.93;;;1.20;;
71496;SDS011;59317;53.218;5.730;2023-06-04T14:41:24;5.67;;;1.33;;
71496;SDS011;59317;53.218;5.730;2023-06-04T14:43:49;6.43;;;2.00;;